sensor_id;sensor_type;location;lat;lon;timestamp;P1;durP1;ratioP1;P2;durP2;ratioP2
15488;SDS011;7846;48.830;9.116;2023-01-08T00:01:47;5.23;;;4.73;;
15488;SDS011;7846;48.830;9.116;2023-01-08T00:04:13;5.00;;;4.53;;
15488;SDS011;7846;48.830;9.116;2023-01-08T00:06:43;6.77;;;4.50;;
15488;SDS011;7846;48.830;9.116;2023-01-08T00:09:09;5.10;;;4.60;;
15488;SDS011;7846;48.830;9.116;2023-01-08T00:11:35;5.07;;;4.67;;
15488;SDS011;7846;48.830;9.116;2023-01-08T00:14:00;5.70;;;4.83;;
15488;SDS011;7846;48.830;9.116;2023-01-08T00:16:26;4.90;;;4.40;;
15488;SDS011;7846;48.830;9.116;2023-01-08T00:18:51;5.23;;;4.57;;
15488;SDS011;7846;48.830;9.116;2023-01-08T00:21:18;4.30;;;3.90;;
15488;SDS011;7846;48.830;9.116;2023-01-08T00:23:48;4.83;;;4.43;;
15488;SDS011;7846;48.830;9.116;2023-01-08T00:26:14;4.53;;;4.07;;
15488;SDS011;7846;48.830;9.116;2023-01-08T00:28:39;4.63;;;4.23;;
15488;SDS011;7846;48.830;9.116;2023-01-08T00:31:10;4.97;;;4.47;;
15488;SDS011;7846;48.830;9.116;2023-01-08T00:33:37;4.80;;;4.23;;
15488;SDS011;7846;48.830;9.116;2023-01-08T00:36:07;5.53;;;4.60;;
15488;SDS011;7846;48.830;9.116;2023-01-08T00:38:42;6.23;;;4.57;;
15488;SDS011;7846;48.830;9.116;2023-01-08T00:41:09;5.00;;;4.50;;
15488;SDS011;7846;48.830;9.116;2023-01-08T00:43:39;5.03;;;4.50;;
15488;SDS011;7846;48.830;9.116;2023-01-08T00:46:05;5.30;;;4.30;;
15488;SDS011;7846;48.830;9.116;2023-01-08T00:48:31;4.97;;;4.43;;
15488;SDS011;7846;48.830;9.116;2023-01-08T00:51:03;5.47;;;4.93;;
15488;SDS011;7846;48.830;9.116;2023-01-08T00:53:30;6.10;;;5.50;;
15488;SDS011;7846;48.830;9.116;2023-01-08T00:55:59;5.40;;;4.90;;
15488;SDS011;7846;48.830;9.116;2023-01-08T00:58:28;5.80;;;5.20;;
15488;SDS011;7846;48.830;9.116;2023-01-08T01:00:54;6.30;;;5.70;;
15488;SDS011;7846;48.830;9.116;2023-01-08T01:03:21;6.33;;;5.67;;
15488;SDS011;7846;48.830;9.116;2023-01-08T01:05:47;6.03;;;5.27;;
15488;SDS011;7846;48.830;9.116;2023-01-08T01:08:14;6.20;;;5.60;;
15488;SDS011;7846;48.830;9.116;2023-01-08T01:10:39;6.30;;;5.70;;
15488;SDS011;7846;48.830;9.116;2023-01-08T01:13:05;5.67;;;5.07;;
15488;SDS011;7846;48.830;9.116;2023-01-08T01:15:30;6.03;;;4.70;;
15488;SDS011;7846;48.830;9.116;2023-01-08T01:17:56;5.53;;;5.03;;
15488;SDS011;7846;48.830;9.116;2023-01-08T01:20:22;6.10;;;5.37;;
15488;SDS011;7846;48.830;9.116;2023-01-08T01:22:47;5.60;;;5.10;;
15488;SDS011;7846;48.830;9.116;2023-01-08T01:25:14;5.93;;;5.33;;
15488;SDS011;7846;48.830;9.116;2023-01-08T01:27:40;6.93;;;5.70;;
15488;SDS011;7846;48.830;9.116;2023-01-08T01:30:05;5.97;;;5.30;;
15488;SDS011;7846;48.830;9.116;2023-01-08T01:32:31;5.83;;;5.20;;
15488;SDS011;7846;48.830;9.116;2023-01-08T01:34:57;6.20;;;5.57;;
15488;SDS011;7846;48.830;9.116;2023-01-08T01:37:23;5.97;;;5.43;;
15488;SDS011;7846;48.830;9.116;2023-01-08T01:39:48;6.00;;;5.03;;
15488;SDS011;7846;48.830;9.116;2023-01-08T01:42:14;4.83;;;4.43;;
15488;SDS011;7846;48.830;9.116;2023-01-08T01:45:00;5.07;;;4.50;;
15488;SDS011;7846;48.830;9.116;2023-01-08T01:47:31;5.13;;;4.60;;
15488;SDS011;7846;48.830;9.116;2023-01-08T01:53:12;4.63;;;4.10;;
15488;SDS011;7846;48.830;9.116;2023-01-08T01:55:42;4.93;;;4.30;;
15488;SDS011;7846;48.830;9.116;2023-01-08T01:58:16;4.13;;;3.37;;
15488;SDS011;7846;48.830;9.116;2023-01-08T02:00:44;3.77;;;3.47;;
15488;SDS011;7846;48.830;9.116;2023-01-08T02:03:11;3.90;;;3.60;;
15488;SDS011;7846;48.830;9.116;2023-01-08T02:05:58;5.00;;;3.80;;
15488;SDS011;7846;48.830;9.116;2023-01-08T02:11:20;4.10;;;3.70;;
15488;SDS011;7846;48.830;9.116;2023-01-08T02:13:54;4.23;;;3.83;;
15488;SDS011;7846;48.830;9.116;2023-01-08T02:16:33;5.37;;;3.60;;
15488;SDS011;7846;48.830;9.116;2023-01-08T02:22:14;3.37;;;3.07;;
15488;SDS011;7846;48.830;9.116;2023-01-08T02:25:00;3.33;;;3.03;;
15488;SDS011;7846;48.830;9.116;2023-01-08T02:27:34;3.60;;;3.30;;
15488;SDS011;7846;48.830;9.116;2023-01-08T02:30:03;3.57;;;2.90;;
15488;SDS011;7846;48.830;9.116;2023-01-08T02:32:33;3.77;;;3.17;;
15488;SDS011;7846;48.830;9.116;2023-01-08T02:35:04;3.40;;;3.10;;
15488;SDS011;7846;48.830;9.116;2023-01-08T02:37:30;3.27;;;2.97;;
15488;SDS011;7846;48.830;9.116;2023-01-08T02:40:57;3.10;;;2.90;;
15488;SDS011;7846;48.830;9.116;2023-01-08T02:45:38;3.83;;;3.10;;
15488;SDS011;7846;48.830;9.116;2023-01-08T02:48:12;3.70;;;3.30;;
15488;SDS011;7846;48.830;9.116;2023-01-08T02:50:48;4.00;;;3.30;;
15488;SDS011;7846;48.830;9.116;2023-01-08T02:53:19;3.30;;;2.80;;
15488;SDS011;7846;48.830;9.116;2023-01-08T02:55:50;2.73;;;2.53;;
15488;SDS011;7846;48.830;9.116;2023-01-08T02:58:20;3.20;;;3.00;;
15488;SDS011;7846;48.830;9.116;2023-01-08T03:00:47;3.10;;;2.80;;
15488;SDS011;7846;48.830;9.116;2023-01-08T03:03:18;3.10;;;2.90;;
15488;SDS011;7846;48.830;9.116;2023-01-08T03:05:48;3.87;;;2.93;;
15488;SDS011;7846;48.830;9.116;2023-01-08T03:08:16;2.97;;;2.67;;
15488;SDS011;7846;48.830;9.116;2023-01-08T03:10:44;3.13;;;2.77;;
15488;SDS011;7846;48.830;9.116;2023-01-08T03:13:14;3.40;;;3.10;;
15488;SDS011;7846;48.830;9.116;2023-01-08T03:15:46;3.50;;;3.20;;
15488;SDS011;7846;48.830;9.116;2023-01-08T03:18:18;3.47;;;3.17;;
15488;SDS011;7846;48.830;9.116;2023-01-08T03:20:48;2.90;;;2.70;;
15488;SDS011;7846;48.830;9.116;2023-01-08T03:23:14;3.13;;;2.80;;
15488;SDS011;7846;48.830;9.116;2023-01-08T03:25:42;2.70;;;2.50;;
15488;SDS011;7846;48.830;9.116;2023-01-08T03:28:30;3.23;;;2.80;;
15488;SDS011;7846;48.830;9.116;2023-01-08T03:30:59;2.87;;;2.67;;
15488;SDS011;7846;48.830;9.116;2023-01-08T03:33:27;6.40;;;3.20;;
15488;SDS011;7846;48.830;9.116;2023-01-08T03:35:56;2.90;;;2.70;;
15488;SDS011;7846;48.830;9.116;2023-01-08T03:38:25;3.20;;;2.90;;
15488;SDS011;7846;48.830;9.116;2023-01-08T03:40:58;3.50;;;3.20;;
15488;SDS011;7846;48.830;9.116;2023-01-08T03:43:28;3.20;;;2.90;;
15488;SDS011;7846;48.830;9.116;2023-01-08T03:45:55;3.43;;;3.10;;
15488;SDS011;7846;48.830;9.116;2023-01-08T03:48:24;3.30;;;3.00;;
15488;SDS011;7846;48.830;9.116;2023-01-08T03:50:51;3.10;;;2.90;;
15488;SDS011;7846;48.830;9.116;2023-01-08T03:53:16;3.60;;;3.30;;
15488;SDS011;7846;48.830;9.116;2023-01-08T03:55:42;3.27;;;2.90;;
15488;SDS011;7846;48.830;9.116;2023-01-08T03:58:07;3.43;;;3.00;;
15488;SDS011;7846;48.830;9.116;2023-01-08T04:00:33;3.27;;;2.93;;
15488;SDS011;7846;48.830;9.116;2023-01-08T04:02:58;3.13;;;2.90;;
15488;SDS011;7846;48.830;9.116;2023-01-08T04:05:24;3.03;;;2.77;;
15488;SDS011;7846;48.830;9.116;2023-01-08T04:07:52;3.20;;;2.90;;
15488;SDS011;7846;48.830;9.116;2023-01-08T04:10:19;3.30;;;3.00;;
15488;SDS011;7846;48.830;9.116;2023-01-08T04:12:44;3.10;;;2.80;;
15488;SDS011;7846;48.830;9.116;2023-01-08T04:15:10;3.30;;;3.00;;
15488;SDS011;7846;48.830;9.116;2023-01-08T04:17:35;3.00;;;2.80;;
15488;SDS011;7846;48.830;9.116;2023-01-08T04:20:00;3.50;;;3.17;;
15488;SDS011;7846;48.830;9.116;2023-01-08T04:22:27;3.03;;;2.77;;
15488;SDS011;7846;48.830;9.116;2023-01-08T04:24:52;4.20;;;2.83;;
15488;SDS011;7846;48.830;9.116;2023-01-08T04:27:18;2.90;;;2.70;;
15488;SDS011;7846;48.830;9.116;2023-01-08T04:29:46;3.40;;;2.73;;
15488;SDS011;7846;48.830;9.116;2023-01-08T04:32:11;2.70;;;2.50;;
15488;SDS011;7846;48.830;9.116;2023-01-08T04:34:37;2.90;;;2.60;;
15488;SDS011;7846;48.830;9.116;2023-01-08T04:37:02;2.93;;;2.73;;
15488;SDS011;7846;48.830;9.116;2023-01-08T04:39:28;2.67;;;2.47;;
15488;SDS011;7846;48.830;9.116;2023-01-08T04:41:55;2.43;;;2.23;;
15488;SDS011;7846;48.830;9.116;2023-01-08T04:44:20;2.40;;;2.20;;
15488;SDS011;7846;48.830;9.116;2023-01-08T04:46:45;5.00;;;2.40;;
15488;SDS011;7846;48.830;9.116;2023-01-08T04:49:12;2.40;;;2.03;;
15488;SDS011;7846;48.830;9.116;2023-01-08T04:51:38;2.00;;;1.90;;
15488;SDS011;7846;48.830;9.116;2023-01-08T04:54:03;1.90;;;1.80;;
15488;SDS011;7846;48.830;9.116;2023-01-08T04:56:29;3.60;;;2.17;;
15488;SDS011;7846;48.830;9.116;2023-01-08T04:58:55;2.13;;;2.00;;
15488;SDS011;7846;48.830;9.116;2023-01-08T05:01:21;2.20;;;2.00;;
15488;SDS011;7846;48.830;9.116;2023-01-08T05:03:51;2.20;;;2.00;;
15488;SDS011;7846;48.830;9.116;2023-01-08T05:06:18;5.07;;;2.00;;
15488;SDS011;7846;48.830;9.116;2023-01-08T05:08:43;4.13;;;2.30;;
15488;SDS011;7846;48.830;9.116;2023-01-08T05:11:09;2.23;;;2.03;;
15488;SDS011;7846;48.830;9.116;2023-01-08T05:13:35;2.27;;;2.07;;
15488;SDS011;7846;48.830;9.116;2023-01-08T05:16:00;2.67;;;2.20;;
15488;SDS011;7846;48.830;9.116;2023-01-08T05:18:26;2.10;;;1.90;;
15488;SDS011;7846;48.830;9.116;2023-01-08T05:20:53;2.20;;;2.00;;
15488;SDS011;7846;48.830;9.116;2023-01-08T05:23:20;2.60;;;1.80;;
15488;SDS011;7846;48.830;9.116;2023-01-08T05:25:46;2.00;;;1.90;;
15488;SDS011;7846;48.830;9.116;2023-01-08T05:28:12;1.70;;;1.60;;
15488;SDS011;7846;48.830;9.116;2023-01-08T05:30:38;1.83;;;1.73;;
15488;SDS011;7846;48.830;9.116;2023-01-08T05:33:03;1.60;;;1.50;;
15488;SDS011;7846;48.830;9.116;2023-01-08T05:35:28;1.60;;;1.50;;
15488;SDS011;7846;48.830;9.116;2023-01-08T05:37:55;1.73;;;1.63;;
15488;SDS011;7846;48.830;9.116;2023-01-08T05:40:21;1.70;;;1.60;;
15488;SDS011;7846;48.830;9.116;2023-01-08T05:42:46;1.93;;;1.30;;
15488;SDS011;7846;48.830;9.116;2023-01-08T05:45:12;1.77;;;1.20;;
15488;SDS011;7846;48.830;9.116;2023-01-08T05:47:39;2.57;;;1.50;;
15488;SDS011;7846;48.830;9.116;2023-01-08T05:50:06;1.67;;;1.20;;
15488;SDS011;7846;48.830;9.116;2023-01-08T05:52:31;1.70;;;1.50;;
15488;SDS011;7846;48.830;9.116;2023-01-08T05:54:57;2.00;;;1.40;;
15488;SDS011;7846;48.830;9.116;2023-01-08T05:57:24;1.50;;;1.40;;
15488;SDS011;7846;48.830;9.116;2023-01-08T05:59:51;1.60;;;1.50;;
15488;SDS011;7846;48.830;9.116;2023-01-08T06:02:16;1.20;;;1.10;;
15488;SDS011;7846;48.830;9.116;2023-01-08T06:04:43;0.90;;;0.90;;
15488;SDS011;7846;48.830;9.116;2023-01-08T06:07:09;1.13;;;1.13;;
15488;SDS011;7846;48.830;9.116;2023-01-08T06:09:35;1.40;;;1.10;;
15488;SDS011;7846;48.830;9.116;2023-01-08T06:12:00;1.07;;;0.97;;
15488;SDS011;7846;48.830;9.116;2023-01-08T06:14:25;1.00;;;1.00;;
15488;SDS011;7846;48.830;9.116;2023-01-08T06:16:51;1.00;;;0.90;;
15488;SDS011;7846;48.830;9.116;2023-01-08T06:19:16;0.90;;;0.90;;
15488;SDS011;7846;48.830;9.116;2023-01-08T06:21:43;1.50;;;1.00;;
15488;SDS011;7846;48.830;9.116;2023-01-08T06:24:08;1.03;;;1.03;;
15488;SDS011;7846;48.830;9.116;2023-01-08T06:26:34;1.10;;;0.90;;
15488;SDS011;7846;48.830;9.116;2023-01-08T06:29:00;0.90;;;0.90;;
15488;SDS011;7846;48.830;9.116;2023-01-08T06:31:26;0.77;;;0.70;;
15488;SDS011;7846;48.830;9.116;2023-01-08T06:33:52;1.30;;;0.90;;
15488;SDS011;7846;48.830;9.116;2023-01-08T06:36:17;0.87;;;0.87;;
15488;SDS011;7846;48.830;9.116;2023-01-08T06:41:37;0.70;;;0.70;;
15488;SDS011;7846;48.830;9.116;2023-01-08T06:44:06;0.60;;;0.60;;
15488;SDS011;7846;48.830;9.116;2023-01-08T06:46:33;0.73;;;0.70;;
15488;SDS011;7846;48.830;9.116;2023-01-08T06:49:04;1.17;;;0.83;;
15488;SDS011;7846;48.830;9.116;2023-01-08T06:51:33;0.97;;;0.97;;
15488;SDS011;7846;48.830;9.116;2023-01-08T06:53:58;0.97;;;0.73;;
15488;SDS011;7846;48.830;9.116;2023-01-08T06:56:24;0.80;;;0.80;;
15488;SDS011;7846;48.830;9.116;2023-01-08T06:58:49;0.90;;;0.90;;
15488;SDS011;7846;48.830;9.116;2023-01-08T07:01:14;0.80;;;0.80;;
15488;SDS011;7846;48.830;9.116;2023-01-08T07:03:41;0.80;;;0.80;;
15488;SDS011;7846;48.830;9.116;2023-01-08T07:06:12;0.97;;;0.73;;
15488;SDS011;7846;48.830;9.116;2023-01-08T07:08:39;0.93;;;0.90;;
15488;SDS011;7846;48.830;9.116;2023-01-08T07:11:05;0.87;;;0.87;;
15488;SDS011;7846;48.830;9.116;2023-01-08T07:13:30;1.67;;;0.90;;
15488;SDS011;7846;48.830;9.116;2023-01-08T07:15:56;0.80;;;0.77;;
15488;SDS011;7846;48.830;9.116;2023-01-08T07:18:22;0.80;;;0.80;;
15488;SDS011;7846;48.830;9.116;2023-01-08T07:20:48;0.60;;;0.60;;
15488;SDS011;7846;48.830;9.116;2023-01-08T07:23:13;0.67;;;0.67;;
15488;SDS011;7846;48.830;9.116;2023-01-08T07:25:39;0.70;;;0.70;;
15488;SDS011;7846;48.830;9.116;2023-01-08T07:28:08;0.67;;;0.67;;
15488;SDS011;7846;48.830;9.116;2023-01-08T07:30:35;0.60;;;0.60;;
15488;SDS011;7846;48.830;9.116;2023-01-08T07:33:01;0.57;;;0.57;;
15488;SDS011;7846;48.830;9.116;2023-01-08T07:35:26;0.60;;;0.60;;
15488;SDS011;7846;48.830;9.116;2023-01-08T07:37:53;0.60;;;0.60;;
15488;SDS011;7846;48.830;9.116;2023-01-08T07:40:19;0.70;;;0.70;;
15488;SDS011;7846;48.830;9.116;2023-01-08T07:42:44;1.23;;;0.93;;
15488;SDS011;7846;48.830;9.116;2023-01-08T07:45:10;0.80;;;0.60;;
15488;SDS011;7846;48.830;9.116;2023-01-08T07:47:36;0.80;;;0.80;;
15488;SDS011;7846;48.830;9.116;2023-01-08T07:50:02;0.97;;;0.90;;
15488;SDS011;7846;48.830;9.116;2023-01-08T07:52:28;2.10;;;0.70;;
15488;SDS011;7846;48.830;9.116;2023-01-08T07:54:53;0.80;;;0.80;;
15488;SDS011;7846;48.830;9.116;2023-01-08T07:57:18;0.70;;;0.70;;
15488;SDS011;7846;48.830;9.116;2023-01-08T07:59:44;0.77;;;0.77;;
15488;SDS011;7846;48.830;9.116;2023-01-08T08:02:10;1.30;;;1.20;;
15488;SDS011;7846;48.830;9.116;2023-01-08T08:04:37;0.77;;;0.77;;
15488;SDS011;7846;48.830;9.116;2023-01-08T08:07:03;0.80;;;0.80;;
15488;SDS011;7846;48.830;9.116;2023-01-08T08:09:29;0.77;;;0.77;;
15488;SDS011;7846;48.830;9.116;2023-01-08T08:11:54;0.80;;;0.80;;
15488;SDS011;7846;48.830;9.116;2023-01-08T08:14:20;0.80;;;0.80;;
15488;SDS011;7846;48.830;9.116;2023-01-08T08:16:45;0.70;;;0.70;;
15488;SDS011;7846;48.830;9.116;2023-01-08T08:19:10;0.90;;;0.73;;
15488;SDS011;7846;48.830;9.116;2023-01-08T08:21:36;0.80;;;0.80;;
15488;SDS011;7846;48.830;9.116;2023-01-08T08:24:03;0.60;;;0.60;;
15488;SDS011;7846;48.830;9.116;2023-01-08T08:26:30;0.80;;;0.80;;
15488;SDS011;7846;48.830;9.116;2023-01-08T08:28:55;0.80;;;0.80;;
15488;SDS011;7846;48.830;9.116;2023-01-08T08:31:21;1.57;;;0.80;;
15488;SDS011;7846;48.830;9.116;2023-01-08T08:33:46;1.13;;;0.90;;
15488;SDS011;7846;48.830;9.116;2023-01-08T08:36:12;1.37;;;1.00;;
15488;SDS011;7846;48.830;9.116;2023-01-08T08:38:39;0.87;;;0.87;;
15488;SDS011;7846;48.830;9.116;2023-01-08T08:41:04;0.83;;;0.80;;
15488;SDS011;7846;48.830;9.116;2023-01-08T08:43:31;0.70;;;0.70;;
15488;SDS011;7846;48.830;9.116;2023-01-08T08:45:57;0.70;;;0.70;;
15488;SDS011;7846;48.830;9.116;2023-01-08T08:48:22;1.53;;;0.90;;
15488;SDS011;7846;48.830;9.116;2023-01-08T08:50:48;1.00;;;0.97;;
15488;SDS011;7846;48.830;9.116;2023-01-08T08:53:14;0.80;;;0.80;;
15488;SDS011;7846;48.830;9.116;2023-01-08T08:55:39;0.70;;;0.70;;
15488;SDS011;7846;48.830;9.116;2023-01-08T08:58:06;0.93;;;0.93;;
15488;SDS011;7846;48.830;9.116;2023-01-08T09:00:38;0.97;;;0.97;;
15488;SDS011;7846;48.830;9.116;2023-01-08T09:03:04;0.70;;;0.70;;
15488;SDS011;7846;48.830;9.116;2023-01-08T09:05:29;1.43;;;0.73;;
15488;SDS011;7846;48.830;9.116;2023-01-08T09:07:56;0.60;;;0.60;;
15488;SDS011;7846;48.830;9.116;2023-01-08T09:10:23;0.80;;;0.80;;
15488;SDS011;7846;48.830;9.116;2023-01-08T09:12:48;1.90;;;1.00;;
15488;SDS011;7846;48.830;9.116;2023-01-08T09:15:15;0.63;;;0.63;;
15488;SDS011;7846;48.830;9.116;2023-01-08T09:17:40;0.70;;;0.70;;
15488;SDS011;7846;48.830;9.116;2023-01-08T09:20:07;0.90;;;0.70;;
15488;SDS011;7846;48.830;9.116;2023-01-08T09:22:32;1.03;;;0.90;;
15488;SDS011;7846;48.830;9.116;2023-01-08T09:24:59;1.17;;;0.70;;
15488;SDS011;7846;48.830;9.116;2023-01-08T09:27:25;0.80;;;0.80;;
15488;SDS011;7846;48.830;9.116;2023-01-08T09:29:51;0.80;;;0.80;;
15488;SDS011;7846;48.830;9.116;2023-01-08T09:32:17;0.83;;;0.83;;
15488;SDS011;7846;48.830;9.116;2023-01-08T09:34:42;0.70;;;0.70;;
15488;SDS011;7846;48.830;9.116;2023-01-08T09:37:08;0.70;;;0.70;;
15488;SDS011;7846;48.830;9.116;2023-01-08T09:39:35;0.97;;;0.97;;
15488;SDS011;7846;48.830;9.116;2023-01-08T09:42:01;0.70;;;0.70;;
15488;SDS011;7846;48.830;9.116;2023-01-08T09:44:34;0.77;;;0.77;;
15488;SDS011;7846;48.830;9.116;2023-01-08T09:47:02;0.70;;;0.70;;
15488;SDS011;7846;48.830;9.116;2023-01-08T09:49:35;0.80;;;0.80;;
15488;SDS011;7846;48.830;9.116;2023-01-08T09:52:13;0.87;;;0.80;;
15488;SDS011;7846;48.830;9.116;2023-01-08T09:54:39;0.70;;;0.70;;
15488;SDS011;7846;48.830;9.116;2023-01-08T09:57:08;0.90;;;0.90;;
15488;SDS011;7846;48.830;9.116;2023-01-08T09:59:37;0.70;;;0.70;;
15488;SDS011;7846;48.830;9.116;2023-01-08T10:02:03;0.70;;;0.70;;
15488;SDS011;7846;48.830;9.116;2023-01-08T10:04:28;0.70;;;0.70;;
15488;SDS011;7846;48.830;9.116;2023-01-08T10:06:59;0.80;;;0.80;;
15488;SDS011;7846;48.830;9.116;2023-01-08T10:09:31;0.70;;;0.70;;
15488;SDS011;7846;48.830;9.116;2023-01-08T10:12:01;0.73;;;0.73;;
15488;SDS011;7846;48.830;9.116;2023-01-08T10:14:33;1.00;;;0.80;;
15488;SDS011;7846;48.830;9.116;2023-01-08T10:17:06;0.90;;;0.90;;
15488;SDS011;7846;48.830;9.116;2023-01-08T10:19:41;1.10;;;1.10;;
15488;SDS011;7846;48.830;9.116;2023-01-08T10:22:10;0.90;;;0.90;;
15488;SDS011;7846;48.830;9.116;2023-01-08T10:24:39;1.70;;;0.83;;
15488;SDS011;7846;48.830;9.116;2023-01-08T10:27:06;0.70;;;0.70;;
15488;SDS011;7846;48.830;9.116;2023-01-08T10:29:34;0.67;;;0.67;;
15488;SDS011;7846;48.830;9.116;2023-01-08T10:32:03;0.80;;;0.80;;
15488;SDS011;7846;48.830;9.116;2023-01-08T10:37:29;1.33;;;0.70;;
15488;SDS011;7846;48.830;9.116;2023-01-08T10:40:00;1.20;;;0.83;;
15488;SDS011;7846;48.830;9.116;2023-01-08T10:42:31;1.00;;;1.00;;
15488;SDS011;7846;48.830;9.116;2023-01-08T10:44:59;1.47;;;0.90;;
15488;SDS011;7846;48.830;9.116;2023-01-08T10:47:29;1.50;;;0.70;;
15488;SDS011;7846;48.830;9.116;2023-01-08T10:49:57;2.00;;;1.90;;
15488;SDS011;7846;48.830;9.116;2023-01-08T10:52:25;1.17;;;0.80;;
15488;SDS011;7846;48.830;9.116;2023-01-08T10:55:43;0.77;;;0.77;;
15488;SDS011;7846;48.830;9.116;2023-01-08T11:00:39;0.60;;;0.60;;
15488;SDS011;7846;48.830;9.116;2023-01-08T11:03:06;2.20;;;1.20;;
15488;SDS011;7846;48.830;9.116;2023-01-08T11:05:36;0.70;;;0.70;;
15488;SDS011;7846;48.830;9.116;2023-01-08T11:08:07;1.30;;;1.20;;
15488;SDS011;7846;48.830;9.116;2023-01-08T11:11:19;0.70;;;0.70;;
15488;SDS011;7846;48.830;9.116;2023-01-08T11:13:37;0.60;;;0.60;;
15488;SDS011;7846;48.830;9.116;2023-01-08T11:16:04;1.00;;;0.80;;
15488;SDS011;7846;48.830;9.116;2023-01-08T11:18:41;0.90;;;0.90;;
15488;SDS011;7846;48.830;9.116;2023-01-08T11:21:15;1.43;;;1.00;;
15488;SDS011;7846;48.830;9.116;2023-01-08T11:23:44;0.60;;;0.60;;
15488;SDS011;7846;48.830;9.116;2023-01-08T11:26:12;0.77;;;0.60;;
15488;SDS011;7846;48.830;9.116;2023-01-08T11:31:22;0.70;;;0.70;;
15488;SDS011;7846;48.830;9.116;2023-01-08T11:34:10;1.13;;;1.13;;
15488;SDS011;7846;48.830;9.116;2023-01-08T11:36:46;0.60;;;0.60;;
15488;SDS011;7846;48.830;9.116;2023-01-08T11:39:17;1.30;;;0.70;;
15488;SDS011;7846;48.830;9.116;2023-01-08T11:41:47;0.70;;;0.70;;
15488;SDS011;7846;48.830;9.116;2023-01-08T11:44:26;0.80;;;0.80;;
15488;SDS011;7846;48.830;9.116;2023-01-08T11:52:44;0.83;;;0.70;;
15488;SDS011;7846;48.830;9.116;2023-01-08T11:55:42;0.70;;;0.70;;
15488;SDS011;7846;48.830;9.116;2023-01-08T11:58:31;0.70;;;0.70;;
15488;SDS011;7846;48.830;9.116;2023-01-08T12:07:23;0.70;;;0.70;;
15488;SDS011;7846;48.830;9.116;2023-01-08T12:12:51;1.03;;;1.00;;
15488;SDS011;7846;48.830;9.116;2023-01-08T12:15:35;0.83;;;0.80;;
15488;SDS011;7846;48.830;9.116;2023-01-08T12:18:13;0.80;;;0.80;;
15488;SDS011;7846;48.830;9.116;2023-01-08T12:21:07;0.77;;;0.70;;
15488;SDS011;7846;48.830;9.116;2023-01-08T12:26:37;1.23;;;0.70;;
15488;SDS011;7846;48.830;9.116;2023-01-08T12:29:30;0.60;;;0.60;;
15488;SDS011;7846;48.830;9.116;2023-01-08T12:34:54;0.77;;;0.50;;
15488;SDS011;7846;48.830;9.116;2023-01-08T12:40:15;1.07;;;1.03;;
15488;SDS011;7846;48.830;9.116;2023-01-08T12:42:46;0.70;;;0.70;;
15488;SDS011;7846;48.830;9.116;2023-01-08T12:45:45;0.80;;;0.70;;
15488;SDS011;7846;48.830;9.116;2023-01-08T12:48:06;0.70;;;0.70;;
15488;SDS011;7846;48.830;9.116;2023-01-08T12:50:37;0.60;;;0.60;;
15488;SDS011;7846;48.830;9.116;2023-01-08T12:53:14;0.60;;;0.60;;
15488;SDS011;7846;48.830;9.116;2023-01-08T13:01:10;0.63;;;0.63;;
15488;SDS011;7846;48.830;9.116;2023-01-08T13:03:44;0.60;;;0.60;;
15488;SDS011;7846;48.830;9.116;2023-01-08T13:06:11;2.67;;;0.70;;
15488;SDS011;7846;48.830;9.116;2023-01-08T13:08:40;0.70;;;0.70;;
15488;SDS011;7846;48.830;9.116;2023-01-08T13:11:22;0.53;;;0.53;;
15488;SDS011;7846;48.830;9.116;2023-01-08T13:13:56;0.67;;;0.67;;
15488;SDS011;7846;48.830;9.116;2023-01-08T13:16:23;0.70;;;0.70;;
15488;SDS011;7846;48.830;9.116;2023-01-08T13:18:50;1.13;;;0.70;;
15488;SDS011;7846;48.830;9.116;2023-01-08T13:21:30;0.80;;;0.80;;
15488;SDS011;7846;48.830;9.116;2023-01-08T13:23:59;0.70;;;0.70;;
15488;SDS011;7846;48.830;9.116;2023-01-08T13:26:30;0.60;;;0.60;;
15488;SDS011;7846;48.830;9.116;2023-01-08T13:31:49;0.90;;;0.60;;
15488;SDS011;7846;48.830;9.116;2023-01-08T13:34:17;0.70;;;0.70;;
15488;SDS011;7846;48.830;9.116;2023-01-08T13:36:53;0.60;;;0.50;;
15488;SDS011;7846;48.830;9.116;2023-01-08T13:39:22;0.67;;;0.67;;
15488;SDS011;7846;48.830;9.116;2023-01-08T13:41:56;0.60;;;0.60;;
15488;SDS011;7846;48.830;9.116;2023-01-08T13:44:46;0.70;;;0.70;;
15488;SDS011;7846;48.830;9.116;2023-01-08T13:49:59;0.63;;;0.63;;
15488;SDS011;7846;48.830;9.116;2023-01-08T13:52:45;1.40;;;1.30;;
15488;SDS011;7846;48.830;9.116;2023-01-08T13:55:35;1.30;;;1.20;;
15488;SDS011;7846;48.830;9.116;2023-01-08T13:58:04;2.40;;;2.20;;
15488;SDS011;7846;48.830;9.116;2023-01-08T14:03:25;1.70;;;1.60;;
15488;SDS011;7846;48.830;9.116;2023-01-08T14:08:31;0.60;;;0.60;;
15488;SDS011;7846;48.830;9.116;2023-01-08T14:10:56;0.80;;;0.80;;
15488;SDS011;7846;48.830;9.116;2023-01-08T14:13:25;0.80;;;0.80;;
15488;SDS011;7846;48.830;9.116;2023-01-08T14:15:54;0.77;;;0.77;;
15488;SDS011;7846;48.830;9.116;2023-01-08T14:18:24;0.93;;;0.93;;
15488;SDS011;7846;48.830;9.116;2023-01-08T14:20:52;0.73;;;0.67;;
15488;SDS011;7846;48.830;9.116;2023-01-08T14:23:37;0.67;;;0.67;;
15488;SDS011;7846;48.830;9.116;2023-01-08T14:26:05;2.73;;;2.53;;
15488;SDS011;7846;48.830;9.116;2023-01-08T14:28:33;0.80;;;0.80;;
15488;SDS011;7846;48.830;9.116;2023-01-08T14:30:59;0.83;;;0.83;;
15488;SDS011;7846;48.830;9.116;2023-01-08T14:33:36;0.60;;;0.60;;
15488;SDS011;7846;48.830;9.116;2023-01-08T14:36:03;0.70;;;0.70;;
15488;SDS011;7846;48.830;9.116;2023-01-08T14:38:31;0.53;;;0.50;;
15488;SDS011;7846;48.830;9.116;2023-01-08T14:41:12;0.97;;;0.50;;
15488;SDS011;7846;48.830;9.116;2023-01-08T14:43:40;0.40;;;0.40;;
15488;SDS011;7846;48.830;9.116;2023-01-08T14:46:24;0.40;;;0.40;;
15488;SDS011;7846;48.830;9.116;2023-01-08T14:48:53;0.50;;;0.50;;
15488;SDS011;7846;48.830;9.116;2023-01-08T14:51:21;0.43;;;0.43;;
15488;SDS011;7846;48.830;9.116;2023-01-08T14:53:50;1.23;;;0.80;;
15488;SDS011;7846;48.830;9.116;2023-01-08T14:56:22;0.50;;;0.50;;
15488;SDS011;7846;48.830;9.116;2023-01-08T14:58:50;1.20;;;0.33;;
15488;SDS011;7846;48.830;9.116;2023-01-08T15:01:16;0.60;;;0.60;;
15488;SDS011;7846;48.830;9.116;2023-01-08T15:06:47;0.63;;;0.63;;
15488;SDS011;7846;48.830;9.116;2023-01-08T15:09:28;1.20;;;1.10;;
15488;SDS011;7846;48.830;9.116;2023-01-08T15:11:56;0.70;;;0.70;;
15488;SDS011;7846;48.830;9.116;2023-01-08T15:14:23;0.60;;;0.60;;
15488;SDS011;7846;48.830;9.116;2023-01-08T15:16:51;2.17;;;1.90;;
15488;SDS011;7846;48.830;9.116;2023-01-08T15:19:22;1.30;;;1.20;;
15488;SDS011;7846;48.830;9.116;2023-01-08T15:21:53;0.73;;;0.67;;
15488;SDS011;7846;48.830;9.116;2023-01-08T15:24:33;0.80;;;0.80;;
15488;SDS011;7846;48.830;9.116;2023-01-08T15:27:03;2.00;;;1.90;;
15488;SDS011;7846;48.830;9.116;2023-01-08T15:29:33;1.40;;;1.20;;
15488;SDS011;7846;48.830;9.116;2023-01-08T15:32:07;0.60;;;0.60;;
15488;SDS011;7846;48.830;9.116;2023-01-08T15:34:36;0.50;;;0.50;;
15488;SDS011;7846;48.830;9.116;2023-01-08T15:37:01;0.50;;;0.50;;
15488;SDS011;7846;48.830;9.116;2023-01-08T15:39:27;0.80;;;0.80;;
15488;SDS011;7846;48.830;9.116;2023-01-08T15:41:53;0.60;;;0.60;;
15488;SDS011;7846;48.830;9.116;2023-01-08T15:44:37;1.07;;;0.80;;
15488;SDS011;7846;48.830;9.116;2023-01-08T15:47:04;0.70;;;0.70;;
15488;SDS011;7846;48.830;9.116;2023-01-08T15:49:29;1.33;;;0.80;;
15488;SDS011;7846;48.830;9.116;2023-01-08T15:51:55;0.90;;;0.90;;
15488;SDS011;7846;48.830;9.116;2023-01-08T15:54:22;1.10;;;1.10;;
15488;SDS011;7846;48.830;9.116;2023-01-08T15:56:49;1.30;;;1.20;;
15488;SDS011;7846;48.830;9.116;2023-01-08T15:59:15;1.20;;;1.20;;
15488;SDS011;7846;48.830;9.116;2023-01-08T16:01:40;1.90;;;1.70;;
15488;SDS011;7846;48.830;9.116;2023-01-08T16:04:06;1.10;;;1.10;;
15488;SDS011;7846;48.830;9.116;2023-01-08T16:06:31;1.90;;;1.80;;
15488;SDS011;7846;48.830;9.116;2023-01-08T16:08:57;1.77;;;1.67;;
15488;SDS011;7846;48.830;9.116;2023-01-08T16:11:24;2.20;;;2.00;;
15488;SDS011;7846;48.830;9.116;2023-01-08T16:13:50;1.77;;;1.67;;
15488;SDS011;7846;48.830;9.116;2023-01-08T16:16:15;1.80;;;1.70;;
15488;SDS011;7846;48.830;9.116;2023-01-08T16:18:41;2.30;;;1.87;;